createdAt,value
2022-10-26T00:01:43.106Z,8.93
2022-10-26T00:04:11.100Z,4.68
2022-10-26T00:06:38.996Z,6.65
2022-10-26T00:09:06.913Z,4.57
2022-10-26T00:11:34.776Z,5.63
2022-10-26T00:14:04.034Z,7.38
2022-10-26T00:16:31.915Z,9.40
2022-10-26T00:18:59.810Z,8.73
2022-10-26T00:21:28.742Z,5.20
2022-10-26T00:23:56.603Z,5.45
2022-10-26T00:26:24.480Z,6.28
2022-10-26T00:28:54.256Z,5.35
2022-10-26T00:31:23.496Z,5.30
2022-10-26T00:33:53.703Z,7.00
2022-10-26T00:36:23.501Z,8.45
2022-10-26T00:38:51.571Z,5.30
2022-10-26T00:41:20.134Z,5.38
2022-10-26T00:43:48.133Z,5.05
2022-10-26T00:46:17.817Z,5.13
2022-10-26T00:48:48.241Z,8.57
2022-10-26T00:51:19.221Z,6.50
2022-10-26T00:53:47.112Z,4.95
2022-10-26T00:56:15.912Z,5.72
2022-10-26T00:58:43.871Z,5.43
2022-10-26T01:01:11.812Z,4.25
2022-10-26T01:03:39.834Z,5.38
2022-10-26T01:06:09.546Z,5.53
2022-10-26T01:08:37.401Z,7.00
2022-10-26T01:11:05.475Z,5.43
2022-10-26T01:13:35.807Z,6.65
2022-10-26T01:16:25.270Z,5.72
2022-10-26T01:18:57.900Z,5.22
2022-10-26T01:21:39.697Z,4.93
2022-10-26T01:24:22.486Z,6.60
2022-10-26T01:26:59.561Z,4.88
2022-10-26T01:29:53.826Z,5.05
2022-10-26T01:32:24.599Z,4.63
2022-10-26T01:34:54.827Z,6.35
2022-10-26T01:37:24.590Z,5.05
2022-10-26T01:39:54.570Z,7.28
2022-10-26T01:42:22.886Z,4.22
2022-10-26T01:44:53.057Z,5.28
2022-10-26T01:47:21.147Z,6.47
2022-10-26T01:49:52.092Z,6.82
2022-10-26T01:52:20.134Z,4.78
2022-10-26T01:54:47.998Z,6.22
2022-10-26T01:57:17.351Z,4.82
2022-10-26T02:00:08.793Z,6.97
2022-10-26T02:02:50.034Z,5.80
2022-10-26T02:05:31.725Z,5.13
2022-10-26T02:08:05.377Z,5.63
2022-10-26T02:10:38.689Z,5.50
2022-10-26T02:13:10.981Z,5.53
2022-10-26T02:15:42.668Z,7.90
2022-10-26T02:18:14.978Z,5.82
2022-10-26T02:20:45.203Z,5.35
2022-10-26T02:23:13.068Z,5.18
2022-10-26T02:25:42.158Z,4.80
2022-10-26T02:28:11.214Z,5.45
2022-10-26T02:30:39.107Z,6.10
2022-10-26T02:33:06.991Z,5.50
2022-10-26T02:35:35.595Z,4.88
2022-10-26T02:38:08.459Z,4.75
2022-10-26T02:40:36.373Z,5.45
2022-10-26T02:43:05.785Z,5.90
2022-10-26T02:45:35.833Z,3.58
2022-10-26T02:48:03.768Z,5.75
2022-10-26T02:50:34.205Z,6.72
2022-10-26T02:53:06.622Z,4.97
2022-10-26T02:55:37.660Z,4.40
2022-10-26T02:58:07.637Z,4.53
2022-10-26T03:00:35.509Z,5.30
2022-10-26T03:03:03.715Z,5.15
2022-10-26T03:05:32.906Z,5.03
2022-10-26T03:08:01.710Z,5.25
2022-10-26T03:10:30.917Z,6.40
2022-10-26T03:12:58.774Z,5.32
2022-10-26T03:15:26.633Z,3.88
2022-10-26T03:17:54.541Z,4.93
2022-10-26T03:20:22.461Z,4.57
2022-10-26T03:22:50.343Z,4.88
2022-10-26T03:25:18.280Z,4.85
2022-10-26T03:27:49.075Z,5.97
2022-10-26T03:30:17.227Z,4.90
2022-10-26T03:32:45.099Z,3.83
2022-10-26T03:35:12.966Z,4.90
2022-10-26T03:37:40.850Z,4.78
2022-10-26T03:40:10.469Z,7.07
2022-10-26T03:42:38.418Z,4.50
2022-10-26T03:45:08.784Z,6.00
2022-10-26T03:47:41.314Z,8.10
2022-10-26T03:50:10.082Z,6.43
2022-10-26T03:52:37.955Z,12.50
2022-10-26T03:55:06.668Z,10.75
2022-10-26T03:57:34.564Z,10.98
2022-10-26T04:00:03.312Z,9.57
2022-10-26T04:02:40.914Z,7.45
2022-10-26T04:05:10.240Z,9.07
2022-10-26T04:07:38.140Z,9.68
2022-10-26T04:10:07.049Z,8.15
2022-10-26T04:12:37.557Z,7.25
2022-10-26T04:15:06.945Z,7.72
2022-10-26T04:17:35.006Z,7.72
2022-10-26T04:20:04.650Z,7.97
2022-10-26T04:22:32.525Z,9.85
2022-10-26T04:25:00.391Z,6.57
2022-10-26T04:27:28.251Z,8.45
2022-10-26T04:29:56.153Z,8.38
2022-10-26T04:32:24.080Z,6.93
2022-10-26T04:34:54.271Z,7.55
2022-10-26T04:37:23.520Z,8.27
2022-10-26T04:39:51.412Z,6.43
2022-10-26T04:42:19.275Z,6.25
2022-10-26T04:44:47.149Z,6.18
2022-10-26T04:47:15.012Z,8.65
2022-10-26T04:49:42.896Z,6.00
2022-10-26T04:52:10.805Z,7.38
2022-10-26T04:54:40.038Z,7.35
2022-10-26T04:57:07.917Z,7.10
2022-10-26T04:59:35.797Z,6.57
2022-10-26T05:02:03.770Z,6.38
2022-10-26T05:04:31.732Z,6.25
2022-10-26T05:06:59.641Z,6.95
2022-10-26T05:09:27.572Z,6.93
2022-10-26T05:11:56.790Z,7.75
2022-10-26T05:14:24.691Z,9.18
2022-10-26T05:16:55.341Z,9.15
2022-10-26T05:19:23.260Z,13.05
2022-10-26T05:21:53.170Z,5.57
2022-10-26T05:24:21.175Z,13.15
2022-10-26T05:26:49.125Z,9.73
2022-10-26T05:29:18.386Z,9.20
2022-10-26T05:31:46.243Z,8.32
2022-10-26T05:34:14.211Z,8.32
2022-10-26T05:36:42.107Z,12.18
2022-10-26T05:39:09.960Z,9.77
2022-10-26T05:41:37.949Z,16.38
2022-10-26T05:44:06.035Z,20.52
2022-10-26T05:46:35.251Z,18.27
2022-10-26T05:49:03.145Z,12.25
2022-10-26T05:51:31.097Z,13.55
2022-10-26T05:53:59.017Z,23.13
2022-10-26T05:56:36.473Z,13.55
2022-10-26T05:59:04.872Z,27.70
2022-10-26T06:01:39.953Z,21.95
2022-10-26T06:04:13.579Z,20.02
2022-10-26T06:06:43.446Z,22.02
2022-10-26T06:09:11.948Z,20.15
2022-10-26T06:11:40.407Z,14.35
2022-10-26T06:14:09.357Z,12.98
2022-10-26T06:16:42.303Z,16.63
2022-10-26T06:19:16.456Z,12.90
2022-10-26T06:21:53.032Z,15.18
2022-10-26T06:24:23.486Z,14.05
2022-10-26T06:26:54.160Z,17.13
2022-10-26T06:29:25.965Z,10.95
2022-10-26T06:31:55.278Z,15.82
2022-10-26T06:34:26.193Z,10.73
2022-10-26T06:39:27.830Z,10.75
2022-10-26T06:41:56.295Z,15.43
2022-10-26T06:44:26.971Z,13.38
2022-10-26T06:47:00.723Z,9.30
2022-10-26T06:49:30.255Z,15.65
2022-10-26T06:52:00.014Z,11.05
2022-10-26T06:54:32.042Z,11.07
2022-10-26T06:57:00.587Z,9.38
2022-10-26T06:59:33.888Z,13.45
2022-10-26T07:02:06.368Z,10.50
2022-10-26T07:04:34.907Z,14.55
2022-10-26T07:07:02.816Z,11.63
2022-10-26T07:09:30.718Z,10.60
2022-10-26T07:11:58.661Z,26.45
2022-10-26T07:14:26.634Z,24.10
2022-10-26T07:16:54.618Z,30.75
2022-10-26T07:19:23.935Z,32.75
2022-10-26T07:21:51.837Z,41.83
2022-10-26T07:24:19.760Z,34.38
2022-10-26T07:26:47.704Z,30.92
2022-10-26T07:29:16.396Z,23.17
2022-10-26T07:31:44.351Z,24.85
2022-10-26T07:34:12.313Z,26.13
2022-10-26T07:36:41.563Z,21.42
2022-10-26T07:39:09.518Z,32.05
2022-10-26T07:41:37.476Z,29.05
2022-10-26T07:44:05.460Z,35.67
2022-10-26T07:46:33.342Z,22.42
2022-10-26T07:49:01.248Z,28.25
2022-10-26T07:51:29.522Z,23.20
2022-10-26T07:53:58.853Z,31.75
2022-10-26T07:56:26.878Z,79.50
2022-10-26T07:58:55.377Z,62.47
2022-10-26T08:01:23.586Z,65.75
2022-10-26T08:03:53.137Z,90.28
2022-10-26T08:06:21.035Z,63.97
2022-10-26T08:08:48.902Z,55.75
2022-10-26T08:11:18.308Z,44.20
2022-10-26T08:13:46.301Z,61.88
2022-10-26T08:16:14.258Z,53.33
2022-10-26T08:18:42.144Z,48.70
2022-10-26T08:21:15.637Z,50.47
2022-10-26T08:23:49.267Z,51.20
2022-10-26T08:26:18.572Z,45.55
2022-10-26T08:28:49.465Z,41.20
2022-10-26T08:31:17.346Z,43.97
2022-10-26T08:33:45.399Z,39.47
2022-10-26T08:36:14.620Z,37.88
2022-10-26T08:38:42.559Z,40.40
2022-10-26T08:41:11.602Z,32.88
2022-10-26T08:43:41.748Z,35.25
2022-10-26T08:46:12.588Z,36.13
2022-10-26T08:48:41.994Z,39.92
2022-10-26T08:51:11.880Z,35.75
2022-10-26T08:53:41.474Z,38.75
2022-10-26T08:56:13.968Z,31.58
2022-10-26T08:58:46.465Z,34.72
2022-10-26T09:01:14.588Z,33.90
2022-10-26T09:03:44.350Z,29.40
2022-10-26T09:06:22.214Z,29.17
2022-10-26T09:08:55.740Z,24.58
2022-10-26T09:11:29.359Z,24.77
2022-10-26T09:14:03.585Z,26.65
2022-10-26T09:16:34.007Z,23.98
2022-10-26T09:19:24.773Z,25.88
2022-10-26T09:21:54.528Z,25.73
2022-10-26T09:24:24.298Z,24.83
2022-10-26T09:26:55.497Z,23.23
2022-10-26T09:29:27.721Z,27.77
2022-10-26T09:31:55.794Z,22.20
2022-10-26T09:34:28.186Z,19.42
2022-10-26T09:36:56.879Z,20.30
2022-10-26T09:39:36.743Z,21.75
2022-10-26T09:42:08.007Z,24.15
2022-10-26T09:44:38.175Z,19.58
2022-10-26T09:47:07.645Z,19.20
2022-10-26T09:49:38.681Z,19.85
2022-10-26T09:52:06.725Z,21.25
2022-10-26T09:54:34.689Z,21.17
2022-10-26T09:57:02.752Z,18.77
2022-10-26T09:59:33.514Z,22.23
2022-10-26T10:02:03.042Z,17.95
2022-10-26T10:04:33.732Z,16.75
2022-10-26T10:07:13.766Z,19.42
2022-10-26T10:09:41.692Z,17.45
2022-10-26T10:12:19.737Z,16.15
2022-10-26T10:14:57.396Z,18.08
2022-10-26T10:17:26.656Z,14.68
2022-10-26T10:19:54.551Z,15.95
2022-10-26T10:22:25.652Z,18.20
2022-10-26T10:24:57.225Z,13.55
2022-10-26T10:27:25.324Z,16.33
2022-10-26T10:29:58.460Z,15.63
2022-10-26T10:32:35.410Z,13.80
2022-10-26T10:35:23.054Z,18.65
2022-10-26T10:37:50.889Z,14.23
2022-10-26T10:40:19.687Z,12.75
2022-10-26T10:42:48.310Z,13.43
2022-10-26T10:45:20.415Z,13.65
2022-10-26T10:48:00.612Z,11.75
2022-10-26T10:50:28.464Z,14.55
2022-10-26T10:53:11.634Z,14.98
2022-10-26T10:55:39.560Z,14.35
2022-10-26T10:58:12.119Z,13.75
2022-10-26T11:00:40.041Z,14.55
2022-10-26T11:03:34.477Z,15.13
2022-10-26T11:06:12.213Z,12.05
2022-10-26T11:08:42.568Z,11.77
2022-10-26T11:11:12.773Z,11.65
2022-10-26T11:13:42.617Z,11.57
2022-10-26T11:16:13.393Z,10.30
2022-10-26T11:18:44.796Z,11.45
2022-10-26T11:21:18.637Z,12.18
2022-10-26T11:23:47.759Z,11.00
2022-10-26T11:26:16.907Z,10.73
2022-10-26T11:28:48.549Z,9.80
2022-10-26T11:31:18.523Z,10.93
2022-10-26T11:33:50.587Z,10.15
2022-10-26T11:36:21.792Z,11.02
2022-10-26T11:38:57.339Z,10.80
2022-10-26T11:41:27.005Z,10.05
2022-10-26T11:43:56.200Z,10.38
2022-10-26T11:46:25.372Z,9.43
2022-10-26T11:48:56.746Z,9.25
2022-10-26T11:51:36.331Z,10.48
2022-10-26T11:54:06.911Z,8.15
2022-10-26T11:56:36.990Z,8.30
2022-10-26T11:59:04.949Z,8.85
2022-10-26T12:01:32.878Z,8.32
2022-10-26T12:04:02.205Z,12.93
2022-10-26T12:06:32.440Z,9.25
2022-10-26T12:09:02.744Z,9.25
2022-10-26T12:11:36.767Z,9.80
2022-10-26T12:14:07.066Z,7.80
2022-10-26T12:16:43.784Z,6.93
2022-10-26T12:19:15.778Z,8.30
2022-10-26T12:21:44.242Z,8.70
2022-10-26T12:24:35.087Z,10.07
2022-10-26T12:27:03.304Z,7.28
2022-10-26T12:29:46.095Z,8.48
2022-10-26T12:32:50.930Z,7.40
2022-10-26T12:35:39.128Z,9.05
2022-10-26T12:38:49.500Z,8.32
2022-10-26T12:41:24.853Z,10.40
2022-10-26T12:43:58.773Z,7.70
2022-10-26T12:46:45.350Z,8.15
2022-10-26T12:49:57.151Z,6.88
2022-10-26T12:52:40.603Z,7.25
2022-10-26T12:55:44.310Z,9.93
2022-10-26T12:58:44.548Z,7.55
2022-10-26T13:01:54.325Z,7.63
2022-10-26T13:05:05.993Z,5.95
2022-10-26T13:07:37.598Z,7.80
2022-10-26T13:10:06.961Z,5.93
2022-10-26T13:12:39.939Z,7.15
2022-10-26T13:15:20.810Z,6.50
2022-10-26T13:17:58.535Z,7.28
2022-10-26T13:20:26.460Z,8.07
2022-10-26T13:22:55.777Z,6.03
2022-10-26T13:25:24.889Z,5.30
2022-10-26T13:28:01.116Z,6.70
2022-10-26T13:30:48.001Z,7.88
2022-10-26T13:33:30.077Z,7.57
2022-10-26T13:36:00.316Z,6.78
2022-10-26T13:38:33.318Z,6.93
2022-10-26T13:41:08.115Z,9.00
2022-10-26T13:43:37.169Z,6.00
2022-10-26T13:46:05.154Z,6.60
2022-10-26T13:48:37.949Z,6.35
2022-10-26T13:51:11.815Z,5.75
2022-10-26T13:53:43.906Z,7.03
2022-10-26T13:56:18.741Z,9.45
2022-10-26T13:58:48.755Z,7.10
2022-10-26T14:01:18.120Z,6.28
2022-10-26T14:03:46.062Z,7.40
2022-10-26T14:06:17.684Z,5.97
2022-10-26T14:08:49.492Z,7.25
2022-10-26T14:11:19.400Z,7.07
2022-10-26T14:13:47.325Z,6.43
2022-10-26T14:16:17.433Z,8.10
2022-10-26T14:18:46.533Z,5.07
2022-10-26T14:21:16.197Z,6.13
2022-10-26T14:23:49.867Z,4.88
2022-10-26T14:26:22.036Z,5.60
2022-10-26T14:28:51.593Z,4.90
2022-10-26T14:31:24.807Z,6.60
2022-10-26T14:33:52.876Z,5.57
2022-10-26T14:36:21.994Z,6.18
2022-10-26T14:38:53.171Z,6.55
2022-10-26T14:41:21.089Z,6.85
2022-10-26T14:43:48.943Z,6.28
2022-10-26T14:46:17.502Z,6.30
2022-10-26T14:48:52.802Z,5.82
2022-10-26T14:51:21.584Z,5.75
2022-10-26T14:53:51.866Z,6.70
2022-10-26T14:56:29.809Z,6.82
2022-10-26T14:58:58.123Z,5.28
2022-10-26T15:01:36.699Z,5.55
2022-10-26T15:04:05.888Z,6.43
2022-10-26T15:06:42.002Z,5.00
2022-10-26T15:09:39.268Z,5.43
2022-10-26T15:12:07.495Z,5.60
2022-10-26T15:14:35.406Z,6.43
2022-10-26T15:17:03.440Z,6.88
2022-10-26T15:19:31.369Z,8.38
2022-10-26T15:21:59.424Z,5.78
2022-10-26T15:24:32.050Z,5.57
2022-10-26T15:27:03.816Z,5.88
2022-10-26T15:29:50.183Z,5.38
2022-10-26T15:32:29.218Z,5.15
2022-10-26T15:35:22.449Z,7.95
2022-10-26T15:37:51.164Z,6.38
2022-10-26T15:40:19.208Z,5.75
2022-10-26T15:42:50.245Z,6.15
2022-10-26T15:45:19.959Z,6.45
2022-10-26T15:47:48.077Z,5.25
2022-10-26T15:50:16.785Z,7.55
2022-10-26T15:52:48.227Z,6.45
2022-10-26T15:55:17.458Z,6.32
2022-10-26T15:57:45.537Z,5.95
2022-10-26T16:00:18.076Z,7.32
2022-10-26T16:02:46.221Z,5.90
2022-10-26T16:05:16.019Z,7.68
2022-10-26T16:07:44.642Z,5.40
2022-10-26T16:10:23.185Z,5.07
2022-10-26T16:12:51.129Z,7.53
2022-10-26T16:15:21.792Z,5.75
2022-10-26T16:17:50.251Z,6.43
2022-10-26T16:20:20.080Z,6.85
2022-10-26T16:22:48.961Z,5.68
2022-10-26T16:25:17.891Z,8.10
2022-10-26T16:27:46.074Z,6.40
2022-10-26T16:30:14.872Z,6.75
2022-10-26T16:32:44.135Z,6.55
2022-10-26T16:35:12.034Z,7.85
2022-10-26T16:37:39.953Z,8.15
2022-10-26T16:40:09.352Z,7.38
2022-10-26T16:42:37.258Z,4.82
2022-10-26T16:45:06.047Z,7.55
2022-10-26T16:47:35.501Z,10.30
2022-10-26T16:50:05.506Z,6.70
2022-10-26T16:52:34.361Z,6.90
2022-10-26T16:55:02.349Z,5.68
2022-10-26T16:57:30.237Z,6.80
2022-10-26T16:59:58.443Z,5.63
2022-10-26T17:02:26.410Z,8.40
2022-10-26T17:04:54.366Z,7.47
2022-10-26T17:07:23.596Z,7.63
2022-10-26T17:09:51.445Z,7.95
2022-10-26T17:12:19.431Z,6.03
2022-10-26T17:14:47.627Z,6.20
2022-10-26T17:17:15.522Z,11.45
2022-10-26T17:19:43.482Z,6.60
2022-10-26T17:22:11.394Z,6.13
2022-10-26T17:24:40.700Z,5.10
2022-10-26T17:27:08.649Z,6.35
2022-10-26T17:29:36.533Z,6.45
2022-10-26T17:32:04.503Z,9.77
2022-10-26T17:34:32.435Z,5.80
2022-10-26T17:37:00.373Z,7.00
2022-10-26T17:39:29.451Z,6.75
2022-10-26T17:41:58.693Z,6.70
2022-10-26T17:44:26.569Z,6.95
2022-10-26T17:46:54.445Z,8.70
2022-10-26T17:49:24.912Z,9.27
2022-10-26T17:51:54.812Z,11.82
2022-10-26T17:54:23.005Z,9.82
2022-10-26T17:56:50.905Z,12.68
2022-10-26T17:59:20.147Z,8.73
2022-10-26T18:01:48.118Z,11.63
2022-10-26T18:04:16.071Z,12.98
2022-10-26T18:06:43.989Z,12.57
2022-10-26T18:09:11.979Z,11.75
2022-10-26T18:11:40.014Z,11.98
2022-10-26T18:14:07.962Z,7.35
2022-10-26T18:16:37.184Z,9.77
2022-10-26T18:19:05.394Z,9.00
2022-10-26T18:21:34.228Z,12.40
2022-10-26T18:24:02.173Z,8.68
2022-10-26T18:26:30.631Z,16.58
2022-10-26T18:28:58.678Z,12.18
2022-10-26T18:31:27.293Z,9.70
2022-10-26T18:34:00.213Z,10.23
2022-10-26T18:36:28.400Z,14.85
2022-10-26T18:38:56.704Z,12.02
2022-10-26T18:41:25.023Z,11.52
2022-10-26T18:43:54.079Z,8.43
2022-10-26T18:46:24.196Z,10.38
2022-10-26T18:48:52.271Z,11.13
2022-10-26T18:51:22.425Z,12.68
2022-10-26T18:53:50.506Z,10.55
2022-10-26T18:56:20.008Z,11.27
2022-10-26T18:58:50.289Z,7.35
2022-10-26T19:01:19.284Z,9.60
2022-10-26T19:03:48.501Z,9.38
2022-10-26T19:06:17.583Z,7.65
2022-10-26T19:08:48.240Z,9.95
2022-10-26T19:11:17.171Z,8.52
2022-10-26T19:13:45.414Z,10.18
2022-10-26T19:16:21.780Z,13.20
2022-10-26T19:18:56.712Z,9.68
2022-10-26T19:21:25.172Z,10.10
2022-10-26T19:23:55.267Z,11.45
2022-10-26T19:26:24.674Z,11.80
2022-10-26T19:28:56.171Z,10.05
2022-10-26T19:31:27.099Z,11.23
2022-10-26T19:33:56.386Z,11.85
2022-10-26T19:36:24.318Z,12.00
2022-10-26T19:38:52.319Z,10.25
2022-10-26T19:41:22.442Z,10.43
2022-10-26T19:43:50.514Z,10.68
2022-10-26T19:46:19.168Z,12.15
2022-10-26T19:48:49.405Z,14.70
2022-10-26T19:51:17.405Z,11.25
2022-10-26T19:53:45.321Z,11.65
2022-10-26T19:56:13.437Z,13.25
2022-10-26T19:58:43.360Z,9.85
2022-10-26T20:01:11.866Z,12.75
2022-10-26T20:03:39.847Z,10.10
2022-10-26T20:06:11.301Z,11.95
2022-10-26T20:08:39.415Z,10.27
2022-10-26T20:11:10.183Z,11.85
2022-10-26T20:13:42.472Z,13.82
2022-10-26T20:16:10.528Z,11.50
2022-10-26T20:18:41.322Z,11.82
2022-10-26T20:21:13.981Z,15.70
2022-10-26T20:23:42.505Z,11.55
2022-10-26T20:26:11.958Z,11.10
2022-10-26T20:28:46.626Z,15.10
2022-10-26T20:31:14.543Z,13.45
2022-10-26T20:33:42.932Z,12.82
2022-10-26T20:36:10.875Z,12.43
2022-10-26T20:38:40.052Z,14.13
2022-10-26T20:41:10.589Z,14.25
2022-10-26T20:43:39.109Z,17.83
2022-10-26T20:46:10.416Z,19.38
2022-10-26T20:48:39.163Z,16.88
2022-10-26T20:51:08.414Z,19.27
2022-10-26T20:53:37.142Z,16.45
2022-10-26T20:56:07.078Z,17.60
2022-10-26T20:58:41.583Z,17.17
2022-10-26T21:01:16.365Z,19.50
2022-10-26T21:03:44.493Z,20.48
2022-10-26T21:06:12.558Z,19.65
2022-10-26T21:08:40.442Z,14.10
2022-10-26T21:11:08.298Z,16.48
2022-10-26T21:13:36.231Z,14.85
2022-10-26T21:16:05.250Z,16.52
2022-10-26T21:18:34.563Z,17.25
2022-10-26T21:21:02.497Z,14.30
2022-10-26T21:23:31.510Z,19.20
2022-10-26T21:25:59.426Z,15.35
2022-10-26T21:28:27.511Z,14.25
2022-10-26T21:30:55.402Z,13.30
2022-10-26T21:33:30.284Z,16.23
2022-10-26T21:35:59.638Z,14.02
2022-10-26T21:38:27.885Z,16.77
2022-10-26T21:41:03.932Z,17.90
2022-10-26T21:43:31.926Z,14.52
2022-10-26T21:46:03.555Z,15.80
2022-10-26T21:48:31.954Z,17.88
2022-10-26T21:51:01.920Z,20.73
2022-10-26T21:53:30.069Z,15.40
2022-10-26T21:56:01.761Z,14.85
2022-10-26T21:58:29.756Z,16.23
2022-10-26T22:01:05.483Z,16.88
2022-10-26T22:03:33.763Z,17.55
2022-10-26T22:06:03.050Z,23.13
2022-10-26T22:08:31.011Z,16.05
2022-10-26T22:10:58.940Z,14.93
2022-10-26T22:13:26.824Z,18.20
2022-10-26T22:16:04.633Z,17.20
2022-10-26T22:18:34.863Z,23.85
2022-10-26T22:21:04.348Z,16.60
2022-10-26T22:23:33.885Z,17.13
2022-10-26T22:26:05.265Z,17.55
2022-10-26T22:28:36.275Z,16.25
2022-10-26T22:31:05.452Z,17.85
2022-10-26T22:33:33.954Z,17.90
2022-10-26T22:36:07.205Z,18.67
2022-10-26T22:38:35.205Z,18.27
2022-10-26T22:41:03.176Z,17.40
2022-10-26T22:43:31.190Z,16.90
2022-10-26T22:46:02.525Z,18.98
2022-10-26T22:48:30.522Z,17.48
2022-10-26T22:50:58.443Z,18.35
2022-10-26T22:53:27.673Z,18.35
2022-10-26T22:55:55.584Z,18.63
2022-10-26T22:58:23.506Z,18.27
2022-10-26T23:00:51.655Z,19.00
2022-10-26T23:03:19.560Z,16.98
2022-10-26T23:05:47.817Z,16.75
2022-10-26T23:08:15.768Z,18.48
2022-10-26T23:10:45.004Z,17.33
2022-10-26T23:13:12.899Z,19.27
2022-10-26T23:15:40.785Z,21.00
2022-10-26T23:18:08.672Z,18.40
2022-10-26T23:20:36.800Z,15.82
2022-10-26T23:23:04.735Z,18.92
2022-10-26T23:25:32.655Z,20.95
2022-10-26T23:28:01.911Z,19.23
2022-10-26T23:30:29.849Z,15.82
2022-10-26T23:32:57.785Z,15.98
2022-10-26T23:35:25.728Z,18.80
2022-10-26T23:37:53.667Z,16.85
2022-10-26T23:40:21.570Z,16.73
2022-10-26T23:42:49.835Z,16.35
2022-10-26T23:45:19.777Z,17.27
2022-10-26T23:47:48.011Z,16.40
2022-10-26T23:50:16.123Z,14.27
2022-10-26T23:52:47.818Z,15.15
2022-10-26T23:55:15.927Z,16.92
2022-10-26T23:57:43.863Z,15.38
